sensor_id;sensor_type;location;lat;lon;timestamp;temperature;humidity
16980;DHT22;42288;52.182;21.156;2023-05-07T00:01:48;9.20;96.80
16980;DHT22;42288;52.182;21.156;2023-05-07T00:04:14;9.30;96.80
16980;DHT22;42288;52.182;21.156;2023-05-07T00:06:40;9.20;97.20
16980;DHT22;42288;52.182;21.156;2023-05-07T00:09:06;9.30;97.00
16980;DHT22;42288;52.182;21.156;2023-05-07T00:11:32;9.40;96.90
16980;DHT22;42288;52.182;21.156;2023-05-07T00:13:58;9.30;96.80
16980;DHT22;42288;52.182;21.156;2023-05-07T00:16:24;9.10;97.10
16980;DHT22;42288;52.182;21.156;2023-05-07T00:18:49;9.20;97.00
16980;DHT22;42288;52.182;21.156;2023-05-07T00:21:15;9.40;96.90
16980;DHT22;42288;52.182;21.156;2023-05-07T00:23:41;9.50;96.90
16980;DHT22;42288;52.182;21.156;2023-05-07T00:26:07;9.50;96.80
16980;DHT22;42288;52.182;21.156;2023-05-07T00:28:32;9.30;96.90
16980;DHT22;42288;52.182;21.156;2023-05-07T00:30:58;9.40;96.90
16980;DHT22;42288;52.182;21.156;2023-05-07T00:33:23;9.40;97.50
16980;DHT22;42288;52.182;21.156;2023-05-07T00:35:49;9.50;97.00
16980;DHT22;42288;52.182;21.156;2023-05-07T00:38:15;9.50;96.90
16980;DHT22;42288;52.182;21.156;2023-05-07T00:40:40;9.50;96.70
16980;DHT22;42288;52.182;21.156;2023-05-07T00:43:06;9.30;96.90
16980;DHT22;42288;52.182;21.156;2023-05-07T00:45:33;9.40;97.00
16980;DHT22;42288;52.182;21.156;2023-05-07T00:48:02;9.30;97.30
16980;DHT22;42288;52.182;21.156;2023-05-07T00:50:28;9.30;97.30
16980;DHT22;42288;52.182;21.156;2023-05-07T00:52:54;9.20;97.50
16980;DHT22;42288;52.182;21.156;2023-05-07T00:55:21;9.20;97.60
16980;DHT22;42288;52.182;21.156;2023-05-07T00:57:47;9.20;97.70
16980;DHT22;42288;52.182;21.156;2023-05-07T01:00:13;9.20;97.70
16980;DHT22;42288;52.182;21.156;2023-05-07T01:02:39;9.20;97.80
16980;DHT22;42288;52.182;21.156;2023-05-07T01:05:07;9.30;97.60
16980;DHT22;42288;52.182;21.156;2023-05-07T01:07:35;9.30;97.40
16980;DHT22;42288;52.182;21.156;2023-05-07T01:10:02;9.30;97.60
16980;DHT22;42288;52.182;21.156;2023-05-07T01:12:28;9.20;97.70
16980;DHT22;42288;52.182;21.156;2023-05-07T01:14:55;9.10;97.80
16980;DHT22;42288;52.182;21.156;2023-05-07T01:17:21;9.10;97.80
16980;DHT22;42288;52.182;21.156;2023-05-07T01:19:46;9.10;97.70
16980;DHT22;42288;52.182;21.156;2023-05-07T01:22:15;9.10;97.70
16980;DHT22;42288;52.182;21.156;2023-05-07T01:24:41;8.90;98.40
16980;DHT22;42288;52.182;21.156;2023-05-07T01:27:07;8.80;98.20
16980;DHT22;42288;52.182;21.156;2023-05-07T01:29:33;8.70;98.20
16980;DHT22;42288;52.182;21.156;2023-05-07T01:32:00;8.70;98.80
16980;DHT22;42288;52.182;21.156;2023-05-07T01:34:28;8.70;98.80
16980;DHT22;42288;52.182;21.156;2023-05-07T01:36:56;8.80;98.90
16980;DHT22;42288;52.182;21.156;2023-05-07T01:39:27;8.90;98.70
16980;DHT22;42288;52.182;21.156;2023-05-07T01:41:55;8.70;98.90
16980;DHT22;42288;52.182;21.156;2023-05-07T01:44:21;8.80;98.90
16980;DHT22;42288;52.182;21.156;2023-05-07T01:46:47;8.90;98.60
16980;DHT22;42288;52.182;21.156;2023-05-07T01:49:13;9.00;98.50
16980;DHT22;42288;52.182;21.156;2023-05-07T01:51:40;8.90;98.70
16980;DHT22;42288;52.182;21.156;2023-05-07T01:54:05;9.00;98.30
16980;DHT22;42288;52.182;21.156;2023-05-07T01:56:32;8.90;98.50
16980;DHT22;42288;52.182;21.156;2023-05-07T01:58:57;9.10;98.20
16980;DHT22;42288;52.182;21.156;2023-05-07T02:01:23;8.90;98.30
16980;DHT22;42288;52.182;21.156;2023-05-07T02:03:48;8.60;99.20
16980;DHT22;42288;52.182;21.156;2023-05-07T02:06:14;8.70;99.20
16980;DHT22;42288;52.182;21.156;2023-05-07T02:08:40;8.80;99.00
16980;DHT22;42288;52.182;21.156;2023-05-07T02:11:06;8.70;98.90
16980;DHT22;42288;52.182;21.156;2023-05-07T02:13:32;8.70;99.00
16980;DHT22;42288;52.182;21.156;2023-05-07T02:15:58;8.80;99.10
16980;DHT22;42288;52.182;21.156;2023-05-07T02:18:24;8.70;99.00
16980;DHT22;42288;52.182;21.156;2023-05-07T02:20:50;8.70;99.10
16980;DHT22;42288;52.182;21.156;2023-05-07T02:23:15;8.80;98.90
16980;DHT22;42288;52.182;21.156;2023-05-07T02:25:41;8.70;99.20
16980;DHT22;42288;52.182;21.156;2023-05-07T02:28:06;8.60;99.20
16980;DHT22;42288;52.182;21.156;2023-05-07T02:30:32;8.60;99.50
16980;DHT22;42288;52.182;21.156;2023-05-07T02:32:58;8.30;99.90
16980;DHT22;42288;52.182;21.156;2023-05-07T02:35:26;8.40;99.90
16980;DHT22;42288;52.182;21.156;2023-05-07T02:37:52;8.40;99.90
16980;DHT22;42288;52.182;21.156;2023-05-07T02:40:17;8.60;99.90
16980;DHT22;42288;52.182;21.156;2023-05-07T02:42:43;8.50;99.70
16980;DHT22;42288;52.182;21.156;2023-05-07T02:45:09;8.60;99.90
16980;DHT22;42288;52.182;21.156;2023-05-07T02:47:35;8.60;99.70
16980;DHT22;42288;52.182;21.156;2023-05-07T02:50:01;8.60;99.90
16980;DHT22;42288;52.182;21.156;2023-05-07T02:52:26;8.70;99.60
16980;DHT22;42288;52.182;21.156;2023-05-07T02:54:52;8.70;99.60
16980;DHT22;42288;52.182;21.156;2023-05-07T02:57:17;8.80;99.50
16980;DHT22;42288;52.182;21.156;2023-05-07T02:59:43;8.80;99.30
16980;DHT22;42288;52.182;21.156;2023-05-07T03:02:09;8.80;99.30
16980;DHT22;42288;52.182;21.156;2023-05-07T03:04:35;8.80;99.30
16980;DHT22;42288;52.182;21.156;2023-05-07T03:07:00;8.80;99.10
16980;DHT22;42288;52.182;21.156;2023-05-07T03:09:26;8.70;99.40
16980;DHT22;42288;52.182;21.156;2023-05-07T03:11:51;8.80;99.00
16980;DHT22;42288;52.182;21.156;2023-05-07T03:14:17;8.70;99.10
16980;DHT22;42288;52.182;21.156;2023-05-07T03:16:43;8.70;99.20
16980;DHT22;42288;52.182;21.156;2023-05-07T03:19:08;8.70;99.60
16980;DHT22;42288;52.182;21.156;2023-05-07T03:21:34;8.70;99.20
16980;DHT22;42288;52.182;21.156;2023-05-07T03:24:00;8.80;99.30
16980;DHT22;42288;52.182;21.156;2023-05-07T03:26:25;8.70;99.20
16980;DHT22;42288;52.182;21.156;2023-05-07T03:28:51;8.60;99.60
16980;DHT22;42288;52.182;21.156;2023-05-07T03:31:17;8.70;99.90
16980;DHT22;42288;52.182;21.156;2023-05-07T03:33:57;8.60;99.90
16980;DHT22;42288;52.182;21.156;2023-05-07T03:36:23;8.80;99.50
16980;DHT22;42288;52.182;21.156;2023-05-07T03:38:49;8.90;98.80
16980;DHT22;42288;52.182;21.156;2023-05-07T03:41:15;8.90;98.80
16980;DHT22;42288;52.182;21.156;2023-05-07T03:43:41;9.00;98.60
16980;DHT22;42288;52.182;21.156;2023-05-07T03:46:07;9.00;98.70
16980;DHT22;42288;52.182;21.156;2023-05-07T03:48:32;8.90;98.70
16980;DHT22;42288;52.182;21.156;2023-05-07T03:50:59;8.90;98.80
16980;DHT22;42288;52.182;21.156;2023-05-07T03:53:24;9.00;98.80
16980;DHT22;42288;52.182;21.156;2023-05-07T03:55:50;8.90;98.90
16980;DHT22;42288;52.182;21.156;2023-05-07T03:58:16;9.00;98.90
16980;DHT22;42288;52.182;21.156;2023-05-07T04:00:42;9.10;98.80
16980;DHT22;42288;52.182;21.156;2023-05-07T04:03:07;9.10;98.60
16980;DHT22;42288;52.182;21.156;2023-05-07T04:05:33;9.10;98.40
16980;DHT22;42288;52.182;21.156;2023-05-07T04:07:59;9.10;98.60
16980;DHT22;42288;52.182;21.156;2023-05-07T04:10:25;9.20;98.70
16980;DHT22;42288;52.182;21.156;2023-05-07T04:12:51;9.10;98.50
16980;DHT22;42288;52.182;21.156;2023-05-07T04:15:16;9.10;98.50
16980;DHT22;42288;52.182;21.156;2023-05-07T04:17:42;9.10;98.60
16980;DHT22;42288;52.182;21.156;2023-05-07T04:20:15;9.20;98.30
16980;DHT22;42288;52.182;21.156;2023-05-07T04:22:41;9.30;98.20
16980;DHT22;42288;52.182;21.156;2023-05-07T04:25:08;9.20;98.40
16980;DHT22;42288;52.182;21.156;2023-05-07T04:27:34;8.90;98.90
16980;DHT22;42288;52.182;21.156;2023-05-07T04:30:00;9.10;98.80
16980;DHT22;42288;52.182;21.156;2023-05-07T04:32:26;8.90;99.00
16980;DHT22;42288;52.182;21.156;2023-05-07T04:34:52;8.80;99.10
16980;DHT22;42288;52.182;21.156;2023-05-07T04:37:17;8.90;99.30
16980;DHT22;42288;52.182;21.156;2023-05-07T04:39:43;9.00;99.30
16980;DHT22;42288;52.182;21.156;2023-05-07T04:42:09;8.90;99.10
16980;DHT22;42288;52.182;21.156;2023-05-07T04:44:35;9.10;99.20
16980;DHT22;42288;52.182;21.156;2023-05-07T04:47:02;9.10;98.80
16980;DHT22;42288;52.182;21.156;2023-05-07T04:49:27;9.10;99.10
16980;DHT22;42288;52.182;21.156;2023-05-07T04:51:53;9.10;98.90
16980;DHT22;42288;52.182;21.156;2023-05-07T04:54:19;9.10;99.10
16980;DHT22;42288;52.182;21.156;2023-05-07T04:56:44;9.10;99.10
16980;DHT22;42288;52.182;21.156;2023-05-07T04:59:10;9.30;99.10
16980;DHT22;42288;52.182;21.156;2023-05-07T05:01:35;9.30;98.60
16980;DHT22;42288;52.182;21.156;2023-05-07T05:04:01;9.30;98.50
16980;DHT22;42288;52.182;21.156;2023-05-07T05:06:27;9.30;98.70
16980;DHT22;42288;52.182;21.156;2023-05-07T05:08:52;9.50;98.80
16980;DHT22;42288;52.182;21.156;2023-05-07T05:11:18;9.40;98.50
16980;DHT22;42288;52.182;21.156;2023-05-07T05:13:43;9.30;98.80
16980;DHT22;42288;52.182;21.156;2023-05-07T05:16:09;9.40;98.60
16980;DHT22;42288;52.182;21.156;2023-05-07T05:18:35;9.60;98.30
16980;DHT22;42288;52.182;21.156;2023-05-07T05:21:01;9.60;98.10
16980;DHT22;42288;52.182;21.156;2023-05-07T05:23:27;9.80;98.00
16980;DHT22;42288;52.182;21.156;2023-05-07T05:25:56;9.80;97.90
16980;DHT22;42288;52.182;21.156;2023-05-07T05:28:23;9.80;97.60
16980;DHT22;42288;52.182;21.156;2023-05-07T05:30:49;10.00;96.80
16980;DHT22;42288;52.182;21.156;2023-05-07T05:33:14;9.90;97.10
16980;DHT22;42288;52.182;21.156;2023-05-07T05:35:40;10.00;96.90
16980;DHT22;42288;52.182;21.156;2023-05-07T05:38:05;10.10;96.60
16980;DHT22;42288;52.182;21.156;2023-05-07T05:40:31;10.30;96.20
16980;DHT22;42288;52.182;21.156;2023-05-07T05:42:57;10.20;96.10
16980;DHT22;42288;52.182;21.156;2023-05-07T05:45:23;10.30;96.00
16980;DHT22;42288;52.182;21.156;2023-05-07T05:47:48;10.50;95.90
16980;DHT22;42288;52.182;21.156;2023-05-07T05:50:14;10.40;96.20
16980;DHT22;42288;52.182;21.156;2023-05-07T05:52:39;10.30;95.80
16980;DHT22;42288;52.182;21.156;2023-05-07T05:55:06;10.40;96.10
16980;DHT22;42288;52.182;21.156;2023-05-07T05:57:32;10.50;96.10
16980;DHT22;42288;52.182;21.156;2023-05-07T05:59:58;10.80;95.70
16980;DHT22;42288;52.182;21.156;2023-05-07T06:02:23;10.90;95.20
16980;DHT22;42288;52.182;21.156;2023-05-07T06:04:49;11.00;94.30
16980;DHT22;42288;52.182;21.156;2023-05-07T06:07:14;11.10;94.50
16980;DHT22;42288;52.182;21.156;2023-05-07T06:09:40;11.20;94.10
16980;DHT22;42288;52.182;21.156;2023-05-07T06:12:05;11.10;94.00
16980;DHT22;42288;52.182;21.156;2023-05-07T06:14:31;11.30;93.90
16980;DHT22;42288;52.182;21.156;2023-05-07T06:16:57;11.20;94.20
16980;DHT22;42288;52.182;21.156;2023-05-07T06:19:22;11.40;93.80
16980;DHT22;42288;52.182;21.156;2023-05-07T06:21:49;11.70;93.20
16980;DHT22;42288;52.182;21.156;2023-05-07T06:24:15;11.80;93.10
16980;DHT22;42288;52.182;21.156;2023-05-07T06:26:41;11.80;93.20
16980;DHT22;42288;52.182;21.156;2023-05-07T06:29:06;11.50;92.80
16980;DHT22;42288;52.182;21.156;2023-05-07T06:31:32;11.70;92.40
16980;DHT22;42288;52.182;21.156;2023-05-07T06:33:58;11.80;92.30
16980;DHT22;42288;52.182;21.156;2023-05-07T06:36:24;11.70;92.60
16980;DHT22;42288;52.182;21.156;2023-05-07T06:38:50;12.00;92.30
16980;DHT22;42288;52.182;21.156;2023-05-07T06:41:16;11.90;92.20
16980;DHT22;42288;52.182;21.156;2023-05-07T06:43:41;12.10;91.90
16980;DHT22;42288;52.182;21.156;2023-05-07T06:46:07;12.00;91.40
16980;DHT22;42288;52.182;21.156;2023-05-07T06:48:32;12.00;91.60
16980;DHT22;42288;52.182;21.156;2023-05-07T06:50:58;11.80;91.30
16980;DHT22;42288;52.182;21.156;2023-05-07T06:53:24;11.90;91.80
16980;DHT22;42288;52.182;21.156;2023-05-07T06:55:50;11.60;91.80
16980;DHT22;42288;52.182;21.156;2023-05-07T06:58:15;11.70;91.50
16980;DHT22;42288;52.182;21.156;2023-05-07T07:00:41;11.70;91.40
16980;DHT22;42288;52.182;21.156;2023-05-07T07:03:07;11.70;91.80
16980;DHT22;42288;52.182;21.156;2023-05-07T07:05:32;11.80;91.60
16980;DHT22;42288;52.182;21.156;2023-05-07T07:07:58;11.90;91.40
16980;DHT22;42288;52.182;21.156;2023-05-07T07:10:24;11.70;91.90
16980;DHT22;42288;52.182;21.156;2023-05-07T07:12:50;11.70;91.80
16980;DHT22;42288;52.182;21.156;2023-05-07T07:15:16;11.80;91.60
16980;DHT22;42288;52.182;21.156;2023-05-07T07:17:42;12.00;91.50
16980;DHT22;42288;52.182;21.156;2023-05-07T07:20:08;12.20;90.80
16980;DHT22;42288;52.182;21.156;2023-05-07T07:22:33;12.20;90.60
16980;DHT22;42288;52.182;21.156;2023-05-07T07:24:59;12.20;89.90
16980;DHT22;42288;52.182;21.156;2023-05-07T07:27:25;12.40;90.00
16980;DHT22;42288;52.182;21.156;2023-05-07T07:29:50;12.40;88.70
16980;DHT22;42288;52.182;21.156;2023-05-07T07:32:16;12.60;89.00
16980;DHT22;42288;52.182;21.156;2023-05-07T07:34:42;12.60;88.60
16980;DHT22;42288;52.182;21.156;2023-05-07T07:37:07;12.50;88.20
16980;DHT22;42288;52.182;21.156;2023-05-07T07:39:33;12.60;87.70
16980;DHT22;42288;52.182;21.156;2023-05-07T07:41:59;12.20;88.90
16980;DHT22;42288;52.182;21.156;2023-05-07T07:44:25;12.20;88.30
16980;DHT22;42288;52.182;21.156;2023-05-07T07:46:51;12.50;87.90
16980;DHT22;42288;52.182;21.156;2023-05-07T07:49:17;12.70;88.50
16980;DHT22;42288;52.182;21.156;2023-05-07T07:51:43;12.90;88.00
16980;DHT22;42288;52.182;21.156;2023-05-07T07:54:08;13.00;87.80
16980;DHT22;42288;52.182;21.156;2023-05-07T07:56:34;12.90;85.70
16980;DHT22;42288;52.182;21.156;2023-05-07T07:59:00;13.20;86.20
16980;DHT22;42288;52.182;21.156;2023-05-07T08:01:26;12.70;86.00
16980;DHT22;42288;52.182;21.156;2023-05-07T08:03:52;13.10;86.50
16980;DHT22;42288;52.182;21.156;2023-05-07T08:06:18;13.10;86.80
16980;DHT22;42288;52.182;21.156;2023-05-07T08:08:44;13.70;85.20
16980;DHT22;42288;52.182;21.156;2023-05-07T08:11:09;13.80;83.60
16980;DHT22;42288;52.182;21.156;2023-05-07T08:13:36;13.90;83.00
16980;DHT22;42288;52.182;21.156;2023-05-07T08:16:02;13.60;84.10
16980;DHT22;42288;52.182;21.156;2023-05-07T08:18:27;13.80;82.30
16980;DHT22;42288;52.182;21.156;2023-05-07T08:20:54;13.90;81.60
16980;DHT22;42288;52.182;21.156;2023-05-07T08:23:20;13.60;82.80
16980;DHT22;42288;52.182;21.156;2023-05-07T08:25:46;13.90;81.80
16980;DHT22;42288;52.182;21.156;2023-05-07T08:28:12;14.00;80.90
16980;DHT22;42288;52.182;21.156;2023-05-07T08:30:37;13.60;79.20
16980;DHT22;42288;52.182;21.156;2023-05-07T08:33:03;13.50;80.90
16980;DHT22;42288;52.182;21.156;2023-05-07T08:35:28;13.50;81.10
16980;DHT22;42288;52.182;21.156;2023-05-07T08:37:54;13.50;80.90
16980;DHT22;42288;52.182;21.156;2023-05-07T08:40:22;13.30;80.40
16980;DHT22;42288;52.182;21.156;2023-05-07T08:42:52;13.50;80.10
16980;DHT22;42288;52.182;21.156;2023-05-07T08:45:19;13.90;80.40
16980;DHT22;42288;52.182;21.156;2023-05-07T08:47:52;14.00;79.90
16980;DHT22;42288;52.182;21.156;2023-05-07T08:50:20;14.10;78.10
16980;DHT22;42288;52.182;21.156;2023-05-07T08:52:47;14.30;75.70
16980;DHT22;42288;52.182;21.156;2023-05-07T08:55:13;13.70;75.30
16980;DHT22;42288;52.182;21.156;2023-05-07T08:57:39;13.70;75.80
16980;DHT22;42288;52.182;21.156;2023-05-07T09:00:05;13.40;76.40
16980;DHT22;42288;52.182;21.156;2023-05-07T09:02:32;13.30;78.00
16980;DHT22;42288;52.182;21.156;2023-05-07T09:04:58;13.30;78.20
16980;DHT22;42288;52.182;21.156;2023-05-07T09:07:24;13.60;79.10
16980;DHT22;42288;52.182;21.156;2023-05-07T09:09:50;13.80;78.70
16980;DHT22;42288;52.182;21.156;2023-05-07T09:12:18;14.20;76.50
16980;DHT22;42288;52.182;21.156;2023-05-07T09:14:44;14.60;76.10
16980;DHT22;42288;52.182;21.156;2023-05-07T09:17:10;14.90;74.10
16980;DHT22;42288;52.182;21.156;2023-05-07T09:19:35;14.80;71.00
16980;DHT22;42288;52.182;21.156;2023-05-07T09:22:02;14.70;73.20
16980;DHT22;42288;52.182;21.156;2023-05-07T09:24:29;15.00;71.50
16980;DHT22;42288;52.182;21.156;2023-05-07T09:26:59;14.90;72.20
16980;DHT22;42288;52.182;21.156;2023-05-07T09:29:25;15.10;71.60
16980;DHT22;42288;52.182;21.156;2023-05-07T09:31:51;15.10;70.40
16980;DHT22;42288;52.182;21.156;2023-05-07T09:34:17;14.90;71.20
16980;DHT22;42288;52.182;21.156;2023-05-07T09:36:42;14.60;70.30
16980;DHT22;42288;52.182;21.156;2023-05-07T09:39:08;14.70;69.90
16980;DHT22;42288;52.182;21.156;2023-05-07T09:41:43;14.70;70.40
16980;DHT22;42288;52.182;21.156;2023-05-07T09:44:09;15.10;68.90
16980;DHT22;42288;52.182;21.156;2023-05-07T09:46:36;15.20;69.10
16980;DHT22;42288;52.182;21.156;2023-05-07T09:49:06;15.10;68.60
16980;DHT22;42288;52.182;21.156;2023-05-07T09:51:43;15.00;67.50
16980;DHT22;42288;52.182;21.156;2023-05-07T09:54:10;14.70;67.70
16980;DHT22;42288;52.182;21.156;2023-05-07T09:56:36;14.60;68.80
16980;DHT22;42288;52.182;21.156;2023-05-07T09:59:03;14.50;70.00
16980;DHT22;42288;52.182;21.156;2023-05-07T10:01:31;14.40;70.70
16980;DHT22;42288;52.182;21.156;2023-05-07T10:03:58;14.50;70.00
16980;DHT22;42288;52.182;21.156;2023-05-07T10:06:24;14.50;70.80
16980;DHT22;42288;52.182;21.156;2023-05-07T10:08:51;15.00;69.20
16980;DHT22;42288;52.182;21.156;2023-05-07T10:11:17;15.60;66.30
16980;DHT22;42288;52.182;21.156;2023-05-07T10:13:43;15.80;65.90
16980;DHT22;42288;52.182;21.156;2023-05-07T10:16:09;15.60;64.10
16980;DHT22;42288;52.182;21.156;2023-05-07T10:18:36;15.00;64.10
16980;DHT22;42288;52.182;21.156;2023-05-07T10:21:07;14.40;67.70
16980;DHT22;42288;52.182;21.156;2023-05-07T10:23:33;14.20;68.20
16980;DHT22;42288;52.182;21.156;2023-05-07T10:26:03;13.80;69.30
16980;DHT22;42288;52.182;21.156;2023-05-07T10:28:31;13.90;69.80
16980;DHT22;42288;52.182;21.156;2023-05-07T10:31:42;13.50;71.20
16980;DHT22;42288;52.182;21.156;2023-05-07T10:34:14;13.80;70.40
16980;DHT22;42288;52.182;21.156;2023-05-07T10:36:42;13.80;69.80
16980;DHT22;42288;52.182;21.156;2023-05-07T10:39:08;13.60;69.60
16980;DHT22;42288;52.182;21.156;2023-05-07T10:41:35;13.60;69.50
16980;DHT22;42288;52.182;21.156;2023-05-07T10:44:00;13.50;70.50
16980;DHT22;42288;52.182;21.156;2023-05-07T10:46:27;13.60;70.50
16980;DHT22;42288;52.182;21.156;2023-05-07T10:51:34;14.10;71.10
16980;DHT22;42288;52.182;21.156;2023-05-07T10:56:41;13.90;71.20
16980;DHT22;42288;52.182;21.156;2023-05-07T11:04:15;14.10;67.90
16980;DHT22;42288;52.182;21.156;2023-05-07T11:13:02;14.60;67.40
16980;DHT22;42288;52.182;21.156;2023-05-07T11:15:04;14.90;68.30
16980;DHT22;42288;52.182;21.156;2023-05-07T11:17:30;15.20;67.60
16980;DHT22;42288;52.182;21.156;2023-05-07T11:20:00;15.10;67.90
16980;DHT22;42288;52.182;21.156;2023-05-07T11:25:02;15.10;67.30
16980;DHT22;42288;52.182;21.156;2023-05-07T11:27:28;15.50;66.20
16980;DHT22;42288;52.182;21.156;2023-05-07T11:29:55;15.60;64.60
16980;DHT22;42288;52.182;21.156;2023-05-07T11:34:58;15.90;64.40
16980;DHT22;42288;52.182;21.156;2023-05-07T11:37:25;17.00;63.60
16980;DHT22;42288;52.182;21.156;2023-05-07T11:40:02;17.70;60.40
16980;DHT22;42288;52.182;21.156;2023-05-07T11:44:56;17.40;58.20
16980;DHT22;42288;52.182;21.156;2023-05-07T11:47:22;16.70;59.00
16980;DHT22;42288;52.182;21.156;2023-05-07T11:49:48;17.30;59.60
16980;DHT22;42288;52.182;21.156;2023-05-07T11:52:15;18.20;59.70
16980;DHT22;42288;52.182;21.156;2023-05-07T11:54:41;19.70;57.40
16980;DHT22;42288;52.182;21.156;2023-05-07T11:57:06;19.80;55.60
16980;DHT22;42288;52.182;21.156;2023-05-07T11:59:42;18.40;55.00
16980;DHT22;42288;52.182;21.156;2023-05-07T12:02:10;18.10;58.00
16980;DHT22;42288;52.182;21.156;2023-05-07T12:04:35;17.60;57.30
16980;DHT22;42288;52.182;21.156;2023-05-07T12:07:01;16.70;59.20
16980;DHT22;42288;52.182;21.156;2023-05-07T12:09:27;16.40;58.80
16980;DHT22;42288;52.182;21.156;2023-05-07T12:11:53;16.20;58.80
16980;DHT22;42288;52.182;21.156;2023-05-07T12:14:18;15.90;60.00
16980;DHT22;42288;52.182;21.156;2023-05-07T12:16:44;15.90;60.70
16980;DHT22;42288;52.182;21.156;2023-05-07T12:19:11;16.10;60.80
16980;DHT22;42288;52.182;21.156;2023-05-07T12:21:40;16.70;60.20
16980;DHT22;42288;52.182;21.156;2023-05-07T12:24:07;17.70;58.90
16980;DHT22;42288;52.182;21.156;2023-05-07T12:26:37;18.40;58.30
16980;DHT22;42288;52.182;21.156;2023-05-07T12:29:03;19.30;55.90
16980;DHT22;42288;52.182;21.156;2023-05-07T12:31:29;19.60;53.90
16980;DHT22;42288;52.182;21.156;2023-05-07T12:33:54;19.10;54.40
16980;DHT22;42288;52.182;21.156;2023-05-07T12:36:20;18.70;55.50
16980;DHT22;42288;52.182;21.156;2023-05-07T12:38:49;19.40;55.80
16980;DHT22;42288;52.182;21.156;2023-05-07T12:41:15;18.70;55.40
16980;DHT22;42288;52.182;21.156;2023-05-07T12:43:44;18.60;55.30
16980;DHT22;42288;52.182;21.156;2023-05-07T12:46:10;18.90;55.20
16980;DHT22;42288;52.182;21.156;2023-05-07T12:48:43;18.60;55.40
16980;DHT22;42288;52.182;21.156;2023-05-07T12:51:10;18.00;55.90
16980;DHT22;42288;52.182;21.156;2023-05-07T12:53:42;17.80;57.40
16980;DHT22;42288;52.182;21.156;2023-05-07T12:56:08;16.90;57.20
16980;DHT22;42288;52.182;21.156;2023-05-07T12:58:35;17.20;57.20
16980;DHT22;42288;52.182;21.156;2023-05-07T13:01:06;17.10;57.60
16980;DHT22;42288;52.182;21.156;2023-05-07T13:03:36;17.10;58.40
16980;DHT22;42288;52.182;21.156;2023-05-07T13:06:04;17.20;57.90
16980;DHT22;42288;52.182;21.156;2023-05-07T13:08:35;17.60;57.40
16980;DHT22;42288;52.182;21.156;2023-05-07T13:11:07;17.90;57.40
16980;DHT22;42288;52.182;21.156;2023-05-07T13:13:35;18.10;56.30
16980;DHT22;42288;52.182;21.156;2023-05-07T13:16:01;18.00;56.60
16980;DHT22;42288;52.182;21.156;2023-05-07T13:18:30;18.10;55.70
16980;DHT22;42288;52.182;21.156;2023-05-07T13:20:56;18.10;55.20
16980;DHT22;42288;52.182;21.156;2023-05-07T13:23:21;17.80;54.90
16980;DHT22;42288;52.182;21.156;2023-05-07T13:25:48;17.60;55.30
16980;DHT22;42288;52.182;21.156;2023-05-07T13:28:13;17.30;55.80
16980;DHT22;42288;52.182;21.156;2023-05-07T13:30:39;17.10;56.40
16980;DHT22;42288;52.182;21.156;2023-05-07T13:33:06;17.20;56.70
16980;DHT22;42288;52.182;21.156;2023-05-07T13:35:31;18.40;56.60
16980;DHT22;42288;52.182;21.156;2023-05-07T13:37:57;20.20;54.30
16980;DHT22;42288;52.182;21.156;2023-05-07T13:40:23;21.00;52.20
16980;DHT22;42288;52.182;21.156;2023-05-07T13:42:48;20.10;51.30
16980;DHT22;42288;52.182;21.156;2023-05-07T13:45:14;19.80;51.60
16980;DHT22;42288;52.182;21.156;2023-05-07T13:47:41;20.70;51.20
16980;DHT22;42288;52.182;21.156;2023-05-07T13:50:08;21.90;52.30
16980;DHT22;42288;52.182;21.156;2023-05-07T13:52:34;22.90;48.70
16980;DHT22;42288;52.182;21.156;2023-05-07T13:55:00;23.80;49.00
16980;DHT22;42288;52.182;21.156;2023-05-07T13:57:25;25.10;45.80
16980;DHT22;42288;52.182;21.156;2023-05-07T14:00:00;22.90;45.50
16980;DHT22;42288;52.182;21.156;2023-05-07T14:02:25;21.30;46.40
16980;DHT22;42288;52.182;21.156;2023-05-07T14:04:51;20.50;48.80
16980;DHT22;42288;52.182;21.156;2023-05-07T14:07:16;21.20;48.30
16980;DHT22;42288;52.182;21.156;2023-05-07T14:09:42;22.30;47.90
16980;DHT22;42288;52.182;21.156;2023-05-07T14:12:08;23.00;46.70
16980;DHT22;42288;52.182;21.156;2023-05-07T14:14:33;24.70;45.40
16980;DHT22;42288;52.182;21.156;2023-05-07T14:16:59;25.30;44.60
16980;DHT22;42288;52.182;21.156;2023-05-07T14:19:24;24.10;42.60
16980;DHT22;42288;52.182;21.156;2023-05-07T14:21:50;22.70;45.00
16980;DHT22;42288;52.182;21.156;2023-05-07T14:24:15;22.30;45.80
16980;DHT22;42288;52.182;21.156;2023-05-07T14:26:41;21.30;45.50
16980;DHT22;42288;52.182;21.156;2023-05-07T14:29:06;21.10;47.70
16980;DHT22;42288;52.182;21.156;2023-05-07T14:31:32;22.10;47.00
16980;DHT22;42288;52.182;21.156;2023-05-07T14:33:58;22.60;45.90
16980;DHT22;42288;52.182;21.156;2023-05-07T14:36:24;22.00;45.60
16980;DHT22;42288;52.182;21.156;2023-05-07T14:38:52;22.10;45.90
16980;DHT22;42288;52.182;21.156;2023-05-07T14:41:19;22.30;44.00
16980;DHT22;42288;52.182;21.156;2023-05-07T14:43:46;21.60;45.80
16980;DHT22;42288;52.182;21.156;2023-05-07T14:46:18;21.80;45.50
16980;DHT22;42288;52.182;21.156;2023-05-07T14:48:45;20.70;46.00
16980;DHT22;42288;52.182;21.156;2023-05-07T14:51:14;20.50;46.60
16980;DHT22;42288;52.182;21.156;2023-05-07T14:53:41;21.10;46.70
16980;DHT22;42288;52.182;21.156;2023-05-07T14:56:07;21.90;46.00
16980;DHT22;42288;52.182;21.156;2023-05-07T14:58:33;22.40;44.30
16980;DHT22;42288;52.182;21.156;2023-05-07T15:00:59;21.80;45.80
16980;DHT22;42288;52.182;21.156;2023-05-07T15:03:25;20.40;45.10
16980;DHT22;42288;52.182;21.156;2023-05-07T15:05:50;19.70;47.20
16980;DHT22;42288;52.182;21.156;2023-05-07T15:08:17;18.70;48.60
16980;DHT22;42288;52.182;21.156;2023-05-07T15:10:43;19.80;49.80
16980;DHT22;42288;52.182;21.156;2023-05-07T15:13:12;20.10;47.90
16980;DHT22;42288;52.182;21.156;2023-05-07T15:15:41;20.60;47.10
16980;DHT22;42288;52.182;21.156;2023-05-07T15:18:07;21.40;46.80
16980;DHT22;42288;52.182;21.156;2023-05-07T15:20:32;23.30;45.20
16980;DHT22;42288;52.182;21.156;2023-05-07T15:22:58;24.20;42.00
16980;DHT22;42288;52.182;21.156;2023-05-07T15:25:24;24.10;41.40
16980;DHT22;42288;52.182;21.156;2023-05-07T15:27:50;24.60;41.90
16980;DHT22;42288;52.182;21.156;2023-05-07T15:30:18;25.50;41.60
16980;DHT22;42288;52.182;21.156;2023-05-07T15:32:45;24.60;40.90
16980;DHT22;42288;52.182;21.156;2023-05-07T15:35:11;23.70;41.20
16980;DHT22;42288;52.182;21.156;2023-05-07T15:37:37;23.80;41.70
16980;DHT22;42288;52.182;21.156;2023-05-07T15:40:04;22.50;41.30
16980;DHT22;42288;52.182;21.156;2023-05-07T15:42:32;22.40;41.70